Tatoosh Island, Washington
Current Conditions -  °F | °C
As of 4:53 AM on Friday 24 Oct 2014 (Local Time) from KUIL Reporting Station
Clear Clear  
Wind Chill: 40°   Ceiling: Unl
Heat Index: 44°   Visibility: 8mi
Dew Point: 43°   Wind: 7mph
Humidity: 96%   Direction: 70°ENE
Pressure: 29.97"   Gusts: NA
Location:  48.3685°N, 124.623°W
Report Text: KUIL 241153Z AUTO 07006KT 8SM CLR 07/06 A2997 RMK AO2 SLP149 60001 70040 T00670061 10089 20061 58000
Loading
Personal Weather Stations






























Interactive Weather Map
Tropical Storm Tracking
New forecast layout! Learn more

10-Day Weather Forecast

Advertisements
Track Severe Weather on mobile